»·PEaware :: N642SP KSBA-KOXR

N642SP :: KSBA-KOXR

FLIGHT INFORMATION

Flight Status: Arrived
Operator: Privately registered:
United States
More flights under this callsign
Pilot: Wes T. (5776)
Aircraft: CESSNA 172 SKYHAWK
(C172)
More flights by this aircraft type
Origin: KSBA Santa Barbara Mun
United States
Destination: KOXR Oxnard
United States
More flights between these airports :: More routes between these airports
Route: +KWANG5 KWANG CMA
File this flight plan on PilotEdge
Remarks: KWANG5.KWANG
Altitude:
(Current/Filed)
5,000ft
Speed:
(Current/Filed)
109kts
Departed: 16-Dec-15 05:37 PM
Arrived: 16-Dec-15 06:22 PM
Distance/Time
Traveled:
34nm/0:45
Distance/Time
To Go:
Arrived

Flight Plot

Page will automatically refresh every two minutes.


Map Options




Map Legend


Flown Route
Filed Route
Departure Airport
Arrival Airport
Navaid (VOR, NDB)
Fix

Horizontal Profiles

Position Reports

Time Latitude Longitude Heading Altitude Ground
Speed
16-Dec-15 17:07 34.428741 -119.846178 332 13ft 0kts
16-Dec-15 17:08 34.428742 -119.846178 332 13ft 0kts
16-Dec-15 17:09 34.428744 -119.846179 332 13ft 0kts
16-Dec-15 17:10 34.428746 -119.846180 332 13ft 0kts
16-Dec-15 17:11 34.428748 -119.846182 332 13ft 0kts
16-Dec-15 17:12 34.428750 -119.846183 332 13ft 0kts
16-Dec-15 17:13 34.428752 -119.846184 332 13ft 0kts
16-Dec-15 17:14 34.428753 -119.846185 332 13ft 0kts
16-Dec-15 17:15 34.428755 -119.846186 332 13ft 0kts
16-Dec-15 17:16 34.428756 -119.846187 332 13ft 0kts
16-Dec-15 17:17 34.428758 -119.846188 332 13ft 0kts
16-Dec-15 17:18 34.428759 -119.846189 332 13ft 0kts
16-Dec-15 17:19 34.428761 -119.846190 332 13ft 0kts
16-Dec-15 17:20 34.428762 -119.846191 332 13ft 0kts
16-Dec-15 17:21 34.428764 -119.846192 332 13ft 0kts
16-Dec-15 17:22 34.428851 -119.844521 57 13ft 10kts
16-Dec-15 17:23 34.430061 -119.842098 67 13ft 0kts
16-Dec-15 17:24 34.430061 -119.842097 67 13ft 0kts
16-Dec-15 17:25 34.430172 -119.841658 74 13ft 10kts
16-Dec-15 17:26 34.430197 -119.838701 164 13ft 11kts
16-Dec-15 17:27 34.429054 -119.835574 90 13ft 12kts
16-Dec-15 17:28 34.428553 -119.835216 183 13ft 0kts
16-Dec-15 17:29 34.428546 -119.835217 183 13ft 0kts
16-Dec-15 17:30 34.428545 -119.835217 183 13ft 0kts
16-Dec-15 17:31 34.428504 -119.835216 176 13ft 3kts
16-Dec-15 17:32 34.427906 -119.835419 255 13ft 10kts
16-Dec-15 17:33 34.425860 -119.854347 242 591ft 80kts
16-Dec-15 17:34 34.409276 -119.844306 84 1290ft 98kts
16-Dec-15 17:35 34.412604 -119.810451 88 1884ft 104kts
16-Dec-15 17:36 34.404647 -119.776889 108 2584ft 101kts
16-Dec-15 17:37 34.393466 -119.745008 108 3005ft 112kts
16-Dec-15 17:38 34.381707 -119.711955 109 2998ft 103kts
16-Dec-15 17:39 34.370232 -119.679946 109 3000ft 103kts
16-Dec-15 17:40 34.358815 -119.648017 109 3001ft 103kts
16-Dec-15 17:41 34.347303 -119.615784 109 3001ft 104kts
16-Dec-15 17:42 34.335718 -119.583445 109 3000ft 104kts
16-Dec-15 17:43 34.324110 -119.551118 109 2999ft 104kts
16-Dec-15 17:44 34.312476 -119.518792 109 2999ft 104kts
16-Dec-15 17:45 34.304091 -119.485371 101 3000ft 103kts
16-Dec-15 17:46 34.296441 -119.451140 101 2923ft 107kts
16-Dec-15 17:47 34.288684 -119.417115 102 2939ft 104kts
16-Dec-15 17:48 34.280959 -119.383223 102 2939ft 104kts
16-Dec-15 17:49 34.273233 -119.349327 102 2938ft 104kts
16-Dec-15 17:50 34.269082 -119.315049 87 2940ft 103kts
16-Dec-15 17:51 34.269615 -119.280347 87 2961ft 102kts
16-Dec-15 17:52 34.270466 -119.247413 87 3562ft 94kts
16-Dec-15 17:53 34.272533 -119.214073 86 4000ft 107kts
16-Dec-15 17:54 34.275182 -119.181821 86 3977ft 95kts
16-Dec-15 17:55 34.273405 -119.150442 96 3999ft 90kts
16-Dec-15 17:56 34.270981 -119.121783 95 3998ft 82kts
16-Dec-15 17:57 34.268751 -119.094277 95 3998ft 81kts
16-Dec-15 17:58 34.266623 -119.066892 95 4001ft 81kts
16-Dec-15 17:59 34.264593 -119.039507 95 4001ft 81kts
16-Dec-15 18:00 34.262657 -119.012103 95 4000ft 81kts
16-Dec-15 18:01 34.260807 -118.984641 95 4000ft 81kts
16-Dec-15 18:02 34.259053 -118.957231 94 4002ft 81kts
16-Dec-15 18:03 34.257390 -118.929786 94 4001ft 81kts
16-Dec-15 18:04 34.255825 -118.902319 94 4001ft 81kts
16-Dec-15 18:05 34.247575 -118.879922 169 4004ft 94kts
16-Dec-15 18:06 34.221080 -118.882026 172 4001ft 96kts
16-Dec-15 18:07 34.198718 -118.903288 220 4002ft 111kts
16-Dec-15 18:08 34.195142 -118.940292 300 3992ft 117kts
16-Dec-15 18:09 34.197925 -118.972548 272 3749ft 112kts
16-Dec-15 18:10 34.197744 -119.004247 274 3198ft 84kts
16-Dec-15 18:11 34.198652 -119.031044 277 2709ft 78kts
16-Dec-15 18:12 34.200066 -119.061585 277 2288ft 98kts
16-Dec-15 18:13 34.200295 -119.095867 270 1796ft 102kts
16-Dec-15 18:14 34.199898 -119.130106 271 1207ft 100kts
16-Dec-15 18:15 34.200062 -119.158543 276 767ft 72kts
16-Dec-15 18:16 34.200402 -119.181046 280 408ft 58kts
16-Dec-15 18:17 34.200752 -119.198847 282 113ft 46kts
16-Dec-15 18:18 34.200579 -119.207246 171 46ft 5kts
16-Dec-15 18:19 34.199720 -119.206976 171 46ft 9kts
16-Dec-15 18:20 34.199396 -119.207044 214 46ft 0kts

Navigation Log

Ident Type
Flight plan parsing failed, navigation log unavailable